EmailTwitter


Surface observations / France / LFBO (07630)

Regions: Quebec | Canada | USA | Europe | France | UK | Elsewhere
Station
Display
Info & Location for LFBO (07630) | Help decoding METAR

Weather Conditions observed on 2019/02/19 at 22:30 UTC at TOULOUSE/BLAGNAC, FR (LFBO)

Temperature: 9.0 Celsius.

Dewpoint: 5.0 Celsius.

Relative Humidity: 76%

Winds: East-southeast at 9 km/h or 5 knots.

Mean Sea level Pressure: 102.20 kilopascals.

Coded METAR:

LFBO 192230Z AUTO 11005KT CAVOK 09/05 Q1022 NOSIG=